RYY - Cobb County Intl/Mccollum Fld

Pirep is a free, collaborative database of all public and private airports located within the United States. All pilots are welcome to contribute, edit, and improve any airport they have local knowledge about, no registration required.
Uploaded photos will be licensed under a CC BY-SA 4.0 license. Please only upload photos you have the rights to use.
Tags
Public
Food
METAR / TAF
Flying Clubs
Edit Tags
Camping
Lodging
Car Rental
Bicycles
Swimming
Golfing
Fishing
Hot Springs
Museum
Airpark
Upcoming Events
No upcoming events. Is anything happening here soon?
*
*
*

Where exactly on/near the airport is this event taking place?

Is there a webpage with more information for this event?

Who should be contacted for more information?

What is this event all about?

Repeat every
Description
Last updated: 2023-06-12 22:43:08 EDT
Transient Parking
Fuel Location
Landing & Tie-down Fees
Crew Car Availability
Flying Clubs
Last updated: 2024-03-10 23:36:55 EDT
WiFi Access
Airport Statistics
Location: Atlanta, GA
Elevation: 1,040ft
Sectional: Atlanta
Activation date: Dec 1942
Fuel: 100LL, A+ (prices)
Runway 09/27: 6,295ft
Access: Open to the public
Current Weather — VFR
  • Weather data is strictly informational and not for flight planning purposes.
  • METAR
    2024-05-26 06:50:00 EDT
    Ceiling Wind Temperature Dewpoint Weather Visbility
    Sky clear Calm 68°F 66°F N/A 10SM
    Raw: KRYY 261050Z 00000KT 10SM CLR 20/19 A2993 RMK AO2 SLP123 T02000194 $
  • TAF
    2024-05-26 02:00:00 EDT – 2024-05-26 06:00:00 EDT
    Ceiling Wind Weather Visbility
    Sky clear 230° @ 3kt N/A 6SM
    Clouds: Scattered @ 5,000ft, Scattered @ 15,000ft
    Raw: KRYY 260558Z 2606/2706 23003KT P6SM SCT050 SCT150 FM261000 00000KT 5SM BR SCT008 SCT015 BKN150 TEMPO 2610/2613 BKN008 FM261300 22004KT P6SM SCT025 BKN150 FM261700 22007KT P6SM SCT040 FM270100 22006KT P6SM FEW250
  • TAF
    2024-05-26 06:00:00 EDT – 2024-05-26 09:00:00 EDT
    Ceiling Wind Weather Visbility
    15,000ft Calm Mist 5SM
    Clouds: Scattered @ 800ft, Scattered @ 1,500ft, Broken @ 15,000ft
    Raw: KRYY 260558Z 2606/2706 23003KT P6SM SCT050 SCT150 FM261000 00000KT 5SM BR SCT008 SCT015 BKN150 TEMPO 2610/2613 BKN008 FM261300 22004KT P6SM SCT025 BKN150 FM261700 22007KT P6SM SCT040 FM270100 22006KT P6SM FEW250
  • TAF
    2024-05-26 06:00:00 EDT – 2024-05-26 09:00:00 EDT
    Ceiling Wind Weather Visbility
    800ft ° @ kt N/A SM
    Clouds: Broken @ 800ft
    Raw: KRYY 260558Z 2606/2706 23003KT P6SM SCT050 SCT150 FM261000 00000KT 5SM BR SCT008 SCT015 BKN150 TEMPO 2610/2613 BKN008 FM261300 22004KT P6SM SCT025 BKN150 FM261700 22007KT P6SM SCT040 FM270100 22006KT P6SM FEW250
  • TAF
    2024-05-26 09:00:00 EDT – 2024-05-26 13:00:00 EDT
    Ceiling Wind Weather Visbility
    15,000ft 220° @ 4kt N/A 6SM
    Clouds: Scattered @ 2,500ft, Broken @ 15,000ft
    Raw: KRYY 260558Z 2606/2706 23003KT P6SM SCT050 SCT150 FM261000 00000KT 5SM BR SCT008 SCT015 BKN150 TEMPO 2610/2613 BKN008 FM261300 22004KT P6SM SCT025 BKN150 FM261700 22007KT P6SM SCT040 FM270100 22006KT P6SM FEW250
  • TAF
    2024-05-26 13:00:00 EDT – 2024-05-26 21:00:00 EDT
    Ceiling Wind Weather Visbility
    Sky clear 220° @ 7kt N/A 6SM
    Clouds: Scattered @ 4,000ft
    Raw: KRYY 260558Z 2606/2706 23003KT P6SM SCT050 SCT150 FM261000 00000KT 5SM BR SCT008 SCT015 BKN150 TEMPO 2610/2613 BKN008 FM261300 22004KT P6SM SCT025 BKN150 FM261700 22007KT P6SM SCT040 FM270100 22006KT P6SM FEW250
  • TAF
    2024-05-26 21:00:00 EDT – 2024-05-27 02:00:00 EDT
    Ceiling Wind Weather Visbility
    Sky clear 220° @ 6kt N/A 6SM
    Clouds: Few @ 25,000ft
    Raw: KRYY 260558Z 2606/2706 23003KT P6SM SCT050 SCT150 FM261000 00000KT 5SM BR SCT008 SCT015 BKN150 TEMPO 2610/2613 BKN008 FM261300 22004KT P6SM SCT025 BKN150 FM261700 22007KT P6SM SCT040 FM270100 22006KT P6SM FEW250
Click/tap to add an annotation marker to the map
Airport Webcams
No webcams added yet.
Direct links to live image URLs will be displayed inline on this page. URLs to separate webpages will be linked to.
URL:
Direct links to live image URLs will be displayed inline on this page. URLs to separate webpages will be linked to.
URL:
Remarks
  • Index b aircraft rescue and fire fighting equipment available upon request. 24 hour prior permission required. contact airport manager 770-528-1615.
  • Blasting sr-ss mon-fri 2000 ft aer 27.
  • Arpt mowing in progress spring thru autumn.
  • Coyotes on & invof arpt.
  • Ry 9 is calm wind ry in vfr conds.
Comments
Leave a comment What was your experience like at this airport?